Time;durP1;ratioP1;P1;durP2;ratioP2;P2;SDS_P1;SDS_P2;PMS_P1;PMS_P2;Temp;Humidity;BMP_temperature;BMP_pressure;BME280_temperature;BME280_humidity;BME280_pressure;Samples;Min_cycle;Max_cycle;Signal;HPM_P1;HPM_P2
2022/08/23 00:00:52;;;;;;;7.83;3.83;;;;;;;;;;6151600;28;20769;-87
2022/08/23 00:03:54;;;;;;;6.05;3.53;;;;;;;;;;6169312;28;20101;-87
2022/08/23 00:06:54;;;;;;;;;;;;;;;;;;6150463;28;20019;-87
2022/08/23 00:09:54;;;;;;;9.02;4.22;;;;;;;;;;6168361;28;20005;-87
2022/08/23 00:12:55;;;;;;;6.43;3.65;;;;;;;;;;6151785;28;20387;-87
2022/08/23 00:15:55;;;;;;;5.60;3.70;;;;;;;;;;6149949;28;20015;-87
2022/08/23 00:18:56;;;;;;;7.27;3.87;;;;;;;;;;6137817;28;20039;-87
2022/08/23 00:21:56;;;;;;;11.13;5.07;;;;;;;;;;6143329;28;20007;-88
2022/08/23 00:24:56;;;;;;;13.87;4.90;;;;;;;;;;6142543;28;20620;-88
2022/08/23 00:27:56;;;;;;;7.13;3.60;;;;;;;;;;6141914;28;20015;-88
2022/08/23 00:30:57;;;;;;;6.17;4.10;;;;;;;;;;6139899;28;20050;-88
2022/08/23 00:33:57;;;;;;;9.03;4.33;;;;;;;;;;6143585;28;20030;-88
2022/08/23 00:36:57;;;;;;;8.23;4.00;;;;;;;;;;6139204;28;20030;-88
2022/08/23 00:39:58;;;;;;;9.17;3.73;;;;;;;;;;6142673;28;20039;-88
2022/08/23 00:50:11;;;;;;;13.77;7.32;;;;;;;;;;6137086;28;20027;-88
2022/08/23 00:53:19;;;;;;;14.30;7.00;;;;;;;;;;6143710;28;20023;-88
2022/08/23 00:56:21;;;;;;;19.98;8.93;;;;;;;;;;6139972;28;20031;-88
2022/08/23 00:59:21;;;;;;;16.42;9.65;;;;;;;;;;6142192;28;20019;-88
2022/08/23 01:02:22;;;;;;;20.77;10.77;;;;;;;;;;6142306;28;20126;-88
2022/08/23 01:05:27;;;;;;;23.23;9.73;;;;;;;;;;6143362;28;20023;-88
2022/08/23 01:08:28;;;;;;;19.75;10.60;;;;;;;;;;6137631;28;20812;-88
2022/08/23 01:11:35;;;;;;;19.10;9.68;;;;;;;;;;6141324;28;20033;-89
2022/08/23 01:14:41;;;;;;;19.52;10.10;;;;;;;;;;6129516;28;20032;-88
2022/08/23 01:17:47;;;;;;;31.10;14.27;;;;;;;;;;6141112;28;20012;-89
2022/08/23 01:20:50;;;;;;;18.35;10.10;;;;;;;;;;6141587;28;20118;-89
2022/08/23 01:23:52;;;;;;;18.48;10.15;;;;;;;;;;6140665;28;20066;-89
2022/08/23 01:26:52;;;;;;;20.55;10.75;;;;;;;;;;6140829;28;20356;-89
2022/08/23 01:29:52;;;;;;;20.90;10.60;;;;;;;;;;6141697;28;20079;-89
2022/08/23 01:32:57;;;;;;;15.80;9.23;;;;;;;;;;6142087;28;20414;-89
2022/08/23 01:35:58;;;;;;;19.42;9.38;;;;;;;;;;6139012;28;20038;-89
2022/08/23 01:38:58;;;;;;;17.57;8.83;;;;;;;;;;6136791;28;20043;-89
2022/08/23 01:41:58;;;;;;;14.25;8.70;;;;;;;;;;6143358;28;20026;-89
2022/08/23 01:44:59;;;;;;;18.50;9.07;;;;;;;;;;6139548;28;20023;-89
2022/08/23 01:47:59;;;;;;;13.03;7.43;;;;;;;;;;6142190;28;20015;-89
2022/08/23 01:50:59;;;;;;;15.97;6.70;;;;;;;;;;6141315;28;20143;-89
2022/08/23 01:54:00;;;;;;;13.70;6.87;;;;;;;;;;6141576;28;20011;-89
2022/08/23 01:57:00;;;;;;;12.93;6.82;;;;;;;;;;6138508;28;20012;-89
2022/08/23 02:00:01;;;;;;;14.33;6.67;;;;;;;;;;6131415;28;20019;-89
2022/08/23 02:03:01;;;;;;;15.17;7.37;;;;;;;;;;6136301;28;20075;-89
2022/08/23 02:06:02;;;;;;;18.13;7.07;;;;;;;;;;6135175;28;20018;-89
2022/08/23 02:09:04;;;;;;;12.53;7.03;;;;;;;;;;6141125;28;20146;-89
2022/08/23 02:12:04;;;;;;;;;;;;;;;;;;6140669;28;20259;-89
2022/08/23 02:15:05;;;;;;;34.17;8.90;;;;;;;;;;6138549;28;19944;-89
2022/08/23 02:18:05;;;;;;;108.20;11.43;;;;;;;;;;6140264;28;20067;-89
2022/08/23 02:21:05;;;;;;;80.03;9.70;;;;;;;;;;6164218;28;20725;-89
2022/08/23 02:24:07;;;;;;;15.87;7.00;;;;;;;;;;6160841;28;20017;-89
2022/08/23 02:27:07;;;;;;;101.95;10.75;;;;;;;;;;6148366;28;20421;-89
2022/08/23 02:30:08;;;;;;;74.63;12.37;;;;;;;;;;6164626;28;20023;-89
2022/08/23 02:33:08;;;;;;;34.40;9.30;;;;;;;;;;6145625;28;20023;-89
2022/08/23 02:36:08;;;;;;;16.25;8.27;;;;;;;;;;6164559;28;20458;-89
2022/08/23 02:39:09;;;;;;;18.90;8.37;;;;;;;;;;6143804;28;20019;-89
2022/08/23 02:42:09;;;;;;;11.57;6.87;;;;;;;;;;6148390;28;20707;-89
2022/08/23 02:45:10;;;;;;;14.43;8.50;;;;;;;;;;6148116;28;20156;-89
2022/08/23 02:48:10;;;;;;;12.73;7.53;;;;;;;;;;6164979;28;20030;-88
2022/08/23 02:51:10;;;;;;;15.13;8.83;;;;;;;;;;6138936;28;20019;-89
2022/08/23 02:54:11;;;;;;;11.17;6.43;;;;;;;;;;6146632;28;20573;-89
2022/08/23 02:57:11;;;;;;;12.73;6.33;;;;;;;;;;6160074;28;20015;-89
2022/08/23 03:00:13;;;;;;;12.47;7.07;;;;;;;;;;6138475;28;20378;-88
2022/08/23 03:03:13;;;;;;;12.02;6.82;;;;;;;;;;6153296;28;20024;-89
2022/08/23 03:06:14;;;;;;;13.50;7.70;;;;;;;;;;6147259;28;20563;-89
2022/08/23 03:09:15;;;;;;;12.90;6.97;;;;;;;;;;6144814;28;20084;-89
2022/08/23 03:12:15;;;;;;;13.70;6.67;;;;;;;;;;6161607;28;20047;-89
2022/08/23 03:15:15;;;;;;;11.77;7.17;;;;;;;;;;6157445;28;20358;-89
2022/08/23 03:18:16;;;;;;;15.80;7.45;;;;;;;;;;6142399;28;20046;-89
2022/08/23 03:21:17;;;;;;;16.70;7.67;;;;;;;;;;6140808;28;20018;-89
2022/08/23 03:24:17;;;;;;;14.80;8.50;;;;;;;;;;6153090;28;20439;-89
2022/08/23 03:27:17;;;;;;;14.07;8.40;;;;;;;;;;6150028;28;20019;-89
2022/08/23 03:30:17;;;;;;;11.20;6.43;;;;;;;;;;6144339;28;20027;-88
2022/08/23 03:33:18;;;;;;;14.63;7.90;;;;;;;;;;6160989;28;20534;-89
2022/08/23 03:36:18;;;;;;;20.00;6.93;;;;;;;;;;6148707;28;20122;-89
2022/08/23 03:39:19;;;;;;;14.63;6.37;;;;;;;;;;6143497;28;20031;-89
2022/08/23 03:42:19;;;;;;;14.10;7.60;;;;;;;;;;6151189;28;20134;-89
2022/08/23 03:45:19;;;;;;;11.60;7.23;;;;;;;;;;6148808;28;20019;-89
2022/08/23 03:48:20;;;;;;;21.10;8.87;;;;;;;;;;6151277;28;20047;-89
2022/08/23 03:51:20;;;;;;;15.57;7.83;;;;;;;;;;6150335;28;20031;-89
2022/08/23 03:54:21;;;;;;;16.10;8.67;;;;;;;;;;6151350;28;20376;-89
2022/08/23 03:57:21;;;;;;;15.33;8.50;;;;;;;;;;6152333;28;20434;-89
2022/08/23 04:00:21;;;;;;;13.27;8.37;;;;;;;;;;6150801;28;20363;-89
2022/08/23 04:03:21;;;;;;;16.67;7.33;;;;;;;;;;6144596;28;20768;-89
2022/08/23 04:06:21;;;;;;;13.40;7.77;;;;;;;;;;6142483;28;20050;-90
2022/08/23 04:09:23;;;;;;;15.85;7.68;;;;;;;;;;6144298;28;20050;-90
2022/08/23 04:12:23;;;;;;;17.90;7.20;;;;;;;;;;6139925;28;20116;-89
2022/08/23 04:15:23;;;;;;;15.67;7.63;;;;;;;;;;6150963;28;20484;-89
2022/08/23 04:18:23;;;;;;;17.67;8.17;;;;;;;;;;6160215;28;20126;-89
2022/08/23 04:21:24;;;;;;;19.07;7.60;;;;;;;;;;6151146;28;20039;-90
2022/08/23 04:24:24;;;;;;;18.37;8.60;;;;;;;;;;6149770;28;20378;-89
2022/08/23 04:27:24;;;;;;;21.10;9.00;;;;;;;;;;6150137;28;20103;-89
2022/08/23 04:30:25;;;;;;;16.58;8.45;;;;;;;;;;6167910;28;20015;-90
2022/08/23 04:33:25;;;;;;;18.30;8.97;;;;;;;;;;6147072;28;20092;-90
2022/08/23 04:36:27;;;;;;;15.27;8.97;;;;;;;;;;6157441;28;20033;-90
2022/08/23 04:39:27;;;;;;;16.80;9.10;;;;;;;;;;6140385;28;20023;-90
2022/08/23 04:42:28;;;;;;;17.20;8.00;;;;;;;;;;6151026;28;20022;-90
2022/08/23 04:45:29;;;;;;;13.98;8.38;;;;;;;;;;6148965;28;20113;-90
2022/08/23 04:48:29;;;;;;;16.60;8.40;;;;;;;;;;6145594;28;20367;-89
2022/08/23 04:51:29;;;;;;;19.10;10.07;;;;;;;;;;6151089;28;20018;-89
2022/08/23 04:54:30;;;;;;;20.37;11.00;;;;;;;;;;6149716;28;20027;-89
2022/08/23 04:57:31;;;;;;;23.07;11.67;;;;;;;;;;6141234;28;20098;-90
2022/08/23 05:00:31;;;;;;;20.07;10.57;;;;;;;;;;6151235;28;20026;-90
2022/08/23 05:03:31;;;;;;;19.37;9.70;;;;;;;;;;6145247;28;20569;-89
2022/08/23 05:06:31;;;;;;;19.50;10.40;;;;;;;;;;6147190;28;20026;-90
2022/08/23 05:09:32;;;;;;;22.90;10.93;;;;;;;;;;6164542;28;20062;-89
2022/08/23 05:12:33;;;;;;;22.10;11.80;;;;;;;;;;6150295;28;20034;-89
2022/08/23 05:15:33;;;;;;;27.37;10.83;;;;;;;;;;6148322;28;20050;-89
2022/08/23 05:18:33;;;;;;;37.93;13.37;;;;;;;;;;6167900;28;20450;-90
2022/08/23 05:21:33;;;;;;;30.77;12.67;;;;;;;;;;6167038;28;20022;-90
2022/08/23 05:24:33;;;;;;;25.17;11.45;;;;;;;;;;6162538;28;20406;-89
2022/08/23 05:27:34;;;;;;;42.60;15.07;;;;;;;;;;6150069;28;20078;-89
2022/08/23 05:30:34;;;;;;;31.10;13.10;;;;;;;;;;6149721;28;20082;-89
2022/08/23 05:33:35;;;;;;;33.07;14.00;;;;;;;;;;6149854;28;20027;-89
2022/08/23 05:36:36;;;;;;;42.60;15.93;;;;;;;;;;6150012;28;20069;-89
2022/08/23 05:39:36;;;;;;;39.63;17.20;;;;;;;;;;6166395;28;20022;-89
2022/08/23 05:42:37;;;;;;;50.10;20.50;;;;;;;;;;6149321;28;20027;-89
2022/08/23 05:45:37;;;;;;;46.43;20.73;;;;;;;;;;6146577;28;20061;-89
2022/08/23 05:48:38;;;;;;;51.50;20.00;;;;;;;;;;6161699;28;20027;-89
2022/08/23 05:51:40;;;;;;;61.00;23.45;;;;;;;;;;6147985;28;20409;-90
2022/08/23 05:54:41;;;;;;;48.65;22.83;;;;;;;;;;6149424;28;20018;-89
2022/08/23 05:57:41;;;;;;;51.97;23.87;;;;;;;;;;6144725;28;20027;-89
2022/08/23 06:00:41;;;;;;;46.87;21.47;;;;;;;;;;6162910;28;20031;-89
2022/08/23 06:03:42;;;;;;;47.23;20.00;;;;;;;;;;6149268;28;20058;-89
2022/08/23 06:06:42;;;;;;;46.87;21.53;;;;;;;;;;6149199;28;20033;-90
2022/08/23 06:09:42;;;;;;;43.97;21.33;;;;;;;;;;6148951;28;20498;-90
2022/08/23 06:12:42;;;;;;;37.92;19.52;;;;;;;;;;6165326;28;20340;-89
2022/08/23 06:15:43;;;;;;;35.33;17.77;;;;;;;;;;6143879;28;20058;-89
2022/08/23 06:18:44;;;;;;;35.83;19.17;;;;;;;;;;6149263;28;20047;-89
2022/08/23 06:21:45;;;;;;;40.97;19.73;;;;;;;;;;6163725;28;20514;-89
2022/08/23 06:24:45;;;;;;;46.70;22.10;;;;;;;;;;6147416;28;20098;-90
2022/08/23 06:27:46;;;;;;;39.13;20.40;;;;;;;;;;6159800;28;20017;-90
2022/08/23 06:30:46;;;;;;;41.40;22.50;;;;;;;;;;6148641;28;20085;-90
2022/08/23 06:33:46;;;;;;;39.60;20.47;;;;;;;;;;6148587;28;20027;-89
2022/08/23 06:36:48;;;;;;;49.53;23.53;;;;;;;;;;6148579;28;20018;-90
2022/08/23 06:39:48;;;;;;;;;;;;;;;;;;6148839;28;20034;-89
2022/08/23 06:42:48;;;;;;;57.08;24.70;;;;;;;;;;6148633;28;19934;-89
2022/08/23 06:45:49;;;;;;;50.17;22.88;;;;;;;;;;6148557;28;20652;-89
2022/08/23 06:48:49;;;;;;;55.07;26.43;;;;;;;;;;6143791;28;20026;-89
2022/08/23 06:51:51;;;;;;;50.77;24.87;;;;;;;;;;6163910;28;20030;-89
2022/08/23 06:54:51;;;;;;;51.05;25.77;;;;;;;;;;6144290;28;20022;-89
2022/08/23 06:57:52;;;;;;;41.93;23.97;;;;;;;;;;6162277;28;20015;-89
2022/08/23 07:00:52;;;;;;;60.10;26.33;;;;;;;;;;6142081;28;20034;-88
2022/08/23 07:03:56;;;;;;;47.93;25.07;;;;;;;;;;6156197;28;20061;-88
2022/08/23 07:06:57;;;;;;;52.72;25.70;;;;;;;;;;6140424;28;20552;-88
2022/08/23 07:09:57;;;;;;;50.08;25.63;;;;;;;;;;6147179;28;20030;-89
2022/08/23 07:12:58;;;;;;;47.73;24.03;;;;;;;;;;6147947;28;20088;-88
2022/08/23 07:15:58;;;;;;;52.30;25.80;;;;;;;;;;6164279;28;20038;-89
2022/08/23 07:18:59;;;;;;;62.45;29.90;;;;;;;;;;6146116;28;20466;-88
2022/08/23 07:21:59;;;;;;;52.43;26.93;;;;;;;;;;6146949;28;20106;-88
2022/08/23 07:25:01;;;;;;;51.90;29.20;;;;;;;;;;6147860;28;20007;-88
2022/08/23 07:28:01;;;;;;;51.45;25.98;;;;;;;;;;6164741;28;20505;-88
2022/08/23 07:31:09;;;;;;;59.13;29.43;;;;;;;;;;6164620;28;20023;-88
2022/08/23 07:34:10;;;;;;;53.30;26.92;;;;;;;;;;6146370;28;20015;-88
2022/08/23 07:37:11;;;;;;;61.90;30.83;;;;;;;;;;6147346;28;20030;-88
2022/08/23 07:40:11;;;;;;;58.70;29.48;;;;;;;;;;6148297;28;20033;-88
2022/08/23 07:43:11;;;;;;;52.70;29.17;;;;;;;;;;6147347;28;20022;-88
2022/08/23 07:46:12;;;;;;;55.80;31.00;;;;;;;;;;6147375;28;20113;-88
2022/08/23 07:49:12;;;;;;;49.43;28.17;;;;;;;;;;6144859;28;20493;-88
2022/08/23 07:52:13;;;;;;;51.60;28.03;;;;;;;;;;6145282;28;20270;-88
2022/08/23 07:55:13;;;;;;;44.40;27.97;;;;;;;;;;6147476;28;20512;-88
2022/08/23 07:58:13;;;;;;;44.60;25.40;;;;;;;;;;6144667;28;20069;-88
2022/08/23 08:01:15;;;;;;;48.40;26.97;;;;;;;;;;6164399;28;20141;-88
2022/08/23 08:04:16;;;;;;;54.30;27.00;;;;;;;;;;6145858;28;20033;-88
2022/08/23 08:07:16;;;;;;;38.40;23.23;;;;;;;;;;6148135;28;20019;-88
2022/08/23 08:10:16;;;;;;;37.87;22.87;;;;;;;;;;6168800;28;20382;-88
2022/08/23 08:13:16;;;;;;;37.07;23.27;;;;;;;;;;6162971;28;20023;-88
2022/08/23 08:16:24;;;;;;;38.33;23.97;;;;;;;;;;6163602;28;20027;-88
2022/08/23 08:19:25;;;;;;;31.55;21.00;;;;;;;;;;6151294;28;20057;-87
2022/08/23 08:22:25;;;;;;;33.13;20.85;;;;;;;;;;6152202;28;20023;-88
2022/08/23 08:25:25;;;;;;;30.45;20.33;;;;;;;;;;6151200;28;20027;-88
2022/08/23 08:28:26;;;;;;;31.90;21.30;;;;;;;;;;6169432;28;20066;-88
2022/08/23 08:31:26;;;;;;;31.40;22.85;;;;;;;;;;6151402;28;20554;-88
2022/08/23 08:34:27;;;;;;;32.00;20.13;;;;;;;;;;6166068;28;20023;-88
2022/08/23 08:37:27;;;;;;;37.63;23.63;;;;;;;;;;6151254;28;20325;-88
2022/08/23 08:40:30;;;;;;;38.72;24.75;;;;;;;;;;6151409;28;20050;-88
2022/08/23 08:43:49;;;;;;;38.65;26.35;;;;;;;;;;6150398;28;20030;-88
2022/08/23 08:46:50;;;;;;;40.58;25.77;;;;;;;;;;6168826;28;20057;-88
2022/08/23 08:49:50;;;;;;;;;;;;;;;;;;6168605;28;20471;-88
2022/08/23 08:52:59;;;;;;;38.22;24.83;;;;;;;;;;6151081;28;20548;-88
2022/08/23 08:56:01;;;;;;;36.72;25.13;;;;;;;;;;6144706;28;20137;-88
2022/08/23 08:59:05;;;;;;;44.15;26.30;;;;;;;;;;6168311;28;20029;-87
2022/08/23 09:02:06;;;;;;;39.67;25.30;;;;;;;;;;6151000;28;20116;-88
2022/08/23 09:05:12;;;;;;;44.92;26.33;;;;;;;;;;6168129;28;20093;-88
2022/08/23 09:08:14;;;;;;;48.97;28.63;;;;;;;;;;6167618;28;20015;-88
2022/08/23 09:11:24;;;;;;;43.67;29.15;;;;;;;;;;6149283;28;20390;-88
2022/08/23 09:14:39;;;;;;;46.30;28.48;;;;;;;;;;6167837;28;20112;-88
2022/08/23 09:17:47;;;;;;;48.05;28.48;;;;;;;;;;6155377;28;20031;-88
2022/08/23 09:20:49;;;;;;;48.05;25.30;;;;;;;;;;6146634;28;20043;-88
2022/08/23 09:23:50;;;;;;;39.33;25.30;;;;;;;;;;6150505;28;20058;-88
2022/08/23 09:26:52;;;;;;;45.93;27.13;;;;;;;;;;6149427;28;20027;-87
2022/08/23 09:29:55;;;;;;;38.15;24.25;;;;;;;;;;6149759;28;20110;-88
2022/08/23 09:33:12;;;;;;;35.00;22.70;;;;;;;;;;6164666;28;20015;-88
2022/08/23 09:36:24;;;;;;;38.60;24.30;;;;;;;;;;6142911;28;20023;-88
2022/08/23 09:39:26;;;;;;;40.22;26.35;;;;;;;;;;6146058;28;20484;-88
2022/08/23 09:42:31;;;;;;;33.53;21.80;;;;;;;;;;6145261;28;20109;-88
2022/08/23 09:45:33;;;;;;;33.20;21.67;;;;;;;;;;6150176;28;20018;-88
2022/08/23 09:48:41;;;;;;;36.30;24.95;;;;;;;;;;6168443;28;20050;-88
2022/08/23 09:51:41;;;;;;;38.35;22.92;;;;;;;;;;6149672;28;20034;-88
2022/08/23 09:54:42;;;;;;;43.33;25.85;;;;;;;;;;6149912;28;20517;-88
2022/08/23 09:57:45;;;;;;;40.10;24.93;;;;;;;;;;6147362;28;20046;-88
2022/08/23 10:01:00;;;;;;;43.17;27.58;;;;;;;;;;6147681;28;20125;-88
2022/08/23 10:04:11;;;;;;;36.80;23.65;;;;;;;;;;6165044;28;20085;-88
2022/08/23 10:07:27;;;;;;;30.50;21.45;;;;;;;;;;6149081;28;20025;-88
2022/08/23 10:10:33;;;;;;;27.88;19.60;;;;;;;;;;6165139;28;20076;-88
2022/08/23 10:13:41;;;;;;;30.00;20.65;;;;;;;;;;6149001;28;20015;-88
2022/08/23 10:16:42;;;;;;;32.13;21.88;;;;;;;;;;6166517;28;20034;-88
2022/08/23 10:19:42;;;;;;;31.23;22.33;;;;;;;;;;6167343;28;20057;-88
2022/08/23 10:22:50;;;;;;;26.47;19.97;;;;;;;;;;6163997;28;20014;-88
2022/08/23 10:25:56;;;;;;;26.17;19.20;;;;;;;;;;6149089;28;20470;-88
2022/08/23 10:32:43;;;;;;;32.03;19.30;;;;;;;;;;6166620;28;20505;-88
2022/08/23 10:35:52;;;;;;;43.70;26.48;;;;;;;;;;6141278;28;20023;-88
2022/08/23 10:38:56;;;;;;;28.45;21.30;;;;;;;;;;6160500;28;20023;-88
2022/08/23 10:42:02;;;;;;;49.05;30.65;;;;;;;;;;6140105;28;20050;-88
2022/08/23 10:45:05;;;;;;;37.13;25.45;;;;;;;;;;6166077;28;20418;-88
2022/08/23 10:48:08;;;;;;;41.53;28.35;;;;;;;;;;6167901;28;20019;-88
2022/08/23 10:51:18;;;;;;;32.88;23.45;;;;;;;;;;6166218;28;20026;-88
2022/08/23 10:54:33;;;;;;;37.92;26.67;;;;;;;;;;6144826;28;20567;-88
2022/08/23 10:57:38;;;;;;;32.40;24.08;;;;;;;;;;6160066;28;20030;-88
2022/08/23 11:00:39;;;;;;;41.45;26.15;;;;;;;;;;6161390;28;20050;-88
2022/08/23 11:03:43;;;;;;;30.45;22.95;;;;;;;;;;6161681;28;20164;-88
2022/08/23 11:06:49;;;;;;;32.55;23.15;;;;;;;;;;6161736;28;20058;-88
2022/08/23 11:09:57;;;;;;;37.10;26.65;;;;;;;;;;6157484;28;20158;-89
2022/08/23 11:12:59;;;;;;;31.92;21.02;;;;;;;;;;6156600;28;20023;-88
2022/08/23 11:16:05;;;;;;;31.17;23.27;;;;;;;;;;6148474;28;20431;-88
2022/08/23 11:19:10;;;;;;;32.63;22.60;;;;;;;;;;6137759;28;20058;-88
2022/08/23 11:22:18;;;;;;;35.20;24.00;;;;;;;;;;6156704;28;20403;-88
2022/08/23 11:25:19;;;;;;;32.65;23.92;;;;;;;;;;6140801;28;20126;-88
2022/08/23 11:28:22;;;;;;;30.83;21.75;;;;;;;;;;6145655;28;20007;-88
2022/08/23 11:31:41;;;;;;;28.63;20.42;;;;;;;;;;6160656;28;20134;-89
2022/08/23 11:34:46;;;;;;;31.23;22.77;;;;;;;;;;6154751;28;20518;-88
2022/08/23 11:37:48;;;;;;;34.08;23.00;;;;;;;;;;6144836;28;20014;-88
2022/08/23 11:40:54;;;;;;;30.35;23.70;;;;;;;;;;6140409;28;20023;-88
2022/08/23 11:43:54;;;;;;;31.50;24.50;;;;;;;;;;6161385;28;20015;-88
2022/08/23 11:46:58;;;;;;;31.17;23.08;;;;;;;;;;6147045;28;20041;-88
2022/08/23 11:50:04;;;;;;;31.10;23.52;;;;;;;;;;6161900;28;20046;-87
2022/08/23 11:53:08;;;;;;;30.92;23.15;;;;;;;;;;6148997;28;20030;-88
2022/08/23 11:56:15;;;;;;;34.97;25.58;;;;;;;;;;6164196;28;20057;-88
2022/08/23 11:59:25;;;;;;;31.45;22.75;;;;;;;;;;6143714;28;20030;-88
2022/08/23 12:02:31;;;;;;;32.38;22.02;;;;;;;;;;6149768;28;20536;-88
2022/08/23 12:05:37;;;;;;;32.20;22.75;;;;;;;;;;6169479;28;20482;-87
2022/08/23 12:08:44;;;;;;;29.75;22.67;;;;;;;;;;6152030;28;20057;-88
2022/08/23 12:11:53;;;;;;;29.10;22.17;;;;;;;;;;6151506;28;20018;-88
2022/08/23 12:14:58;;;;;;;26.10;22.40;;;;;;;;;;6151610;28;21966;-88
2022/08/23 12:18:07;;;;;;;28.77;23.30;;;;;;;;;;6147814;28;20026;-88
2022/08/23 12:21:22;;;;;;;34.17;24.30;;;;;;;;;;6165803;28;20019;-87
2022/08/23 12:24:39;;;;;;;29.55;23.25;;;;;;;;;;6168298;28;20048;-88
2022/08/23 12:27:42;;;;;;;26.67;21.67;;;;;;;;;;6168719;28;20610;-87
2022/08/23 12:30:56;;;;;;;30.50;23.88;;;;;;;;;;6170353;28;20026;-88
2022/08/23 12:33:59;;;;;;;34.13;22.13;;;;;;;;;;6146747;28;20018;-88
2022/08/23 12:37:12;;;;;;;27.92;21.63;;;;;;;;;;6152885;28;20121;-88
2022/08/23 12:40:19;;;;;;;34.10;21.70;;;;;;;;;;6157431;28;20106;-88
2022/08/23 12:43:21;;;;;;;29.90;20.75;;;;;;;;;;6152107;28;20025;-88
2022/08/23 12:46:29;;;;;;;31.90;24.52;;;;;;;;;;6149709;28;20040;-88
2022/08/23 12:49:31;;;;;;;31.33;23.02;;;;;;;;;;6170970;28;20398;-88
2022/08/23 12:52:32;;;;;;;30.65;18.98;;;;;;;;;;6169618;28;20047;-88
2022/08/23 12:55:35;;;;;;;26.88;19.88;;;;;;;;;;6169242;28;20019;-88
2022/08/23 12:58:37;;;;;;;30.08;21.50;;;;;;;;;;6151266;28;20019;-88
2022/08/23 13:01:38;;;;;;;27.67;21.45;;;;;;;;;;6158234;28;20027;-88
2022/08/23 13:04:39;;;;;;;25.52;18.48;;;;;;;;;;6143024;28;20433;-88
2022/08/23 13:07:40;;;;;;;25.55;20.13;;;;;;;;;;6165151;28;20019;-88
2022/08/23 13:10:40;;;;;;;;;;;;;;;;;;6164300;28;20023;-88
2022/08/23 13:13:46;;;;;;;25.67;20.30;;;;;;;;;;6143847;28;19929;-89
2022/08/23 13:16:46;;;;;;;26.38;20.23;;;;;;;;;;6138836;28;20029;-88
2022/08/23 13:19:46;;;;;;;;;;;;;;;;;;6149783;28;20042;-88
2022/08/23 13:23:04;;;;;;;30.33;20.88;;;;;;;;;;6146807;28;19910;-88
2022/08/23 13:26:23;;;;;;;29.13;19.25;;;;;;;;;;6159188;28;20011;-88
2022/08/23 13:29:23;;;;;;;30.90;20.88;;;;;;;;;;6140400;28;20020;-88
2022/08/23 13:32:23;;;;;;;;;;;;;;;;;;6147065;28;20025;-88
2022/08/23 13:35:44;;;;;;;33.67;24.00;;;;;;;;;;6147501;28;19913;-88
2022/08/23 13:38:44;;;;;;;30.50;21.88;;;;;;;;;;6146622;28;20030;-88
2022/08/23 13:41:44;;;;;;;29.48;22.10;;;;;;;;;;6157487;28;20023;-88
2022/08/23 13:44:47;;;;;;;;;;;;;;;;;;6144822;28;20110;-89
2022/08/23 13:47:50;;;;;;;27.25;22.42;;;;;;;;;;6142054;28;19907;-88
2022/08/23 13:50:50;;;;;;;29.98;21.73;;;;;;;;;;6142699;28;20029;-88
2022/08/23 13:53:51;;;;;;;29.30;22.93;;;;;;;;;;6154636;28;20031;-89
2022/08/23 13:56:56;;;;;;;34.28;22.85;;;;;;;;;;6137321;28;20389;-88
2022/08/23 13:59:59;;;;;;;30.90;24.17;;;;;;;;;;6158867;28;20018;-88
2022/08/23 14:02:59;;;;;;;28.08;21.70;;;;;;;;;;6165457;28;20026;-88
2022/08/23 14:05:59;;;;;;;;;;;;;;;;;;6165423;28;20019;-88
2022/08/23 14:09:00;;;;;;;25.10;20.08;;;;;;;;;;6148181;28;19906;-89
2022/08/23 14:12:03;;;;;;;26.17;18.97;;;;;;;;;;6164869;28;20103;-88
2022/08/23 14:15:04;;;;;;;29.50;19.33;;;;;;;;;;6162200;28;20035;-88
2022/08/23 14:18:04;;;;;;;22.00;17.80;;;;;;;;;;6160811;28;20378;-88
2022/08/23 14:21:04;;;;;;;28.87;21.47;;;;;;;;;;6165692;28;20027;-88
2022/08/23 14:24:05;;;;;;;;;;;;;;;;;;6148873;28;20265;-89
2022/08/23 14:27:06;;;;;;;24.48;19.67;;;;;;;;;;6166279;28;19957;-88
2022/08/23 14:30:07;;;;;;;21.77;18.58;;;;;;;;;;6146783;28;20023;-89
2022/08/23 14:33:07;;;;;;;24.80;18.75;;;;;;;;;;6164877;28;20031;-89
2022/08/23 14:36:07;;;;;;;;;;;;;;;;;;6165218;28;20027;-89
2022/08/23 14:39:08;;;;;;;28.38;20.27;;;;;;;;;;6165632;28;20509;-88
2022/08/23 14:42:08;;;;;;;22.48;18.10;;;;;;;;;;6142509;28;20073;-88
2022/08/23 14:45:09;;;;;;;25.20;19.98;;;;;;;;;;6162396;28;20085;-88
2022/08/23 14:48:10;;;;;;;30.20;20.08;;;;;;;;;;6144006;28;20038;-88
2022/08/23 14:51:20;;;;;;;26.87;19.83;;;;;;;;;;6148327;28;20109;-88
2022/08/23 14:54:22;;;;;;;30.73;21.55;;;;;;;;;;6165616;28;20522;-88
2022/08/23 14:57:22;;;;;;;27.70;18.90;;;;;;;;;;6142354;28;20106;-88
2022/08/23 15:00:23;;;;;;;26.50;19.10;;;;;;;;;;6142731;28;20023;-88
2022/08/23 15:03:25;;;;;;;26.67;19.27;;;;;;;;;;6138501;28;20599;-88
2022/08/23 15:06:25;;;;;;;28.25;21.40;;;;;;;;;;6165815;28;20061;-89
2022/08/23 15:09:26;;;;;;;26.58;20.00;;;;;;;;;;6166316;28;20431;-88
2022/08/23 15:12:26;;;;;;;28.63;20.97;;;;;;;;;;6162003;28;20046;-88
2022/08/23 15:15:26;;;;;;;;;;;;;;;;;;6165462;28;20736;-88
2022/08/23 15:18:26;;;;;;;25.30;20.13;;;;;;;;;;6165511;28;20325;-88
2022/08/23 15:21:26;;;;;;;;;;;;;;;;;;6147609;28;20030;-88
2022/08/23 15:24:27;;;;;;;28.20;21.88;;;;;;;;;;6147204;28;19960;-88
2022/08/23 15:27:28;;;;;;;27.15;21.15;;;;;;;;;;6166686;28;20015;-88
2022/08/23 15:30:29;;;;;;;29.77;22.35;;;;;;;;;;6143622;28;20027;-88
2022/08/23 15:33:31;;;;;;;34.28;24.70;;;;;;;;;;6157107;28;20023;-88
2022/08/23 15:36:34;;;;;;;34.45;25.08;;;;;;;;;;6158333;28;20019;-88
2022/08/23 15:39:34;;;;;;;38.63;26.10;;;;;;;;;;6142263;28;20530;-88
2022/08/23 15:42:34;;;;;;;36.53;25.73;;;;;;;;;;6156043;28;20047;-88
2022/08/23 15:45:35;;;;;;;36.03;26.53;;;;;;;;;;6141855;28;20023;-88
2022/08/23 15:48:40;;;;;;;38.00;26.13;;;;;;;;;;6159893;28;20026;-88
2022/08/23 15:51:40;;;;;;;39.10;26.73;;;;;;;;;;6149651;28;20552;-88
2022/08/23 15:54:41;;;;;;;37.03;26.40;;;;;;;;;;6165529;28;20019;-87
2022/08/23 15:57:46;;;;;;;37.80;27.42;;;;;;;;;;6149575;28;20030;-88
2022/08/23 16:00:47;;;;;;;39.15;26.23;;;;;;;;;;6143704;28;20031;-88
2022/08/23 16:03:48;;;;;;;38.67;26.42;;;;;;;;;;6149724;28;20049;-87
2022/08/23 16:06:48;;;;;;;33.85;26.02;;;;;;;;;;6150045;28;20019;-88
2022/08/23 16:09:48;;;;;;;37.30;23.93;;;;;;;;;;6167725;28;20063;-88
2022/08/23 16:12:48;;;;;;;35.63;25.70;;;;;;;;;;6148811;28;20030;-88
2022/08/23 16:15:49;;;;;;;33.80;24.13;;;;;;;;;;6158124;28;20110;-88
2022/08/23 16:18:49;;;;;;;31.80;23.97;;;;;;;;;;6159215;28;20053;-88
2022/08/23 16:21:51;;;;;;;33.65;24.92;;;;;;;;;;6146979;28;20078;-87
2022/08/23 16:24:53;;;;;;;33.47;23.95;;;;;;;;;;6148075;28;20022;-87
2022/08/23 16:27:53;;;;;;;;;;;;;;;;;;6150865;28;20030;-88
2022/08/23 16:30:53;;;;;;;36.72;23.30;;;;;;;;;;6153383;28;20028;-88
2022/08/23 16:33:57;;;;;;;33.13;23.30;;;;;;;;;;6171662;28;20034;-88
2022/08/23 16:36:58;;;;;;;33.47;22.65;;;;;;;;;;6153825;28;20490;-88
2022/08/23 16:39:58;;;;;;;28.90;21.15;;;;;;;;;;6169976;28;20027;-88
2022/08/23 16:42:59;;;;;;;28.55;21.33;;;;;;;;;;6170918;28;20054;-88
2022/08/23 16:45:59;;;;;;;31.20;22.50;;;;;;;;;;6153644;28;20023;-87
2022/08/23 16:48:59;;;;;;;30.23;23.00;;;;;;;;;;6153345;28;20074;-87
2022/08/23 16:52:00;;;;;;;30.33;21.93;;;;;;;;;;6152085;28;20019;-88
2022/08/23 16:55:01;;;;;;;30.27;21.53;;;;;;;;;;6153518;28;20022;-87
2022/08/23 16:58:02;;;;;;;30.27;22.08;;;;;;;;;;6151835;28;20625;-88
2022/08/23 17:01:03;;;;;;;34.08;22.70;;;;;;;;;;6151783;28;20049;-88
2022/08/23 17:04:03;;;;;;;30.58;22.40;;;;;;;;;;6169821;28;20394;-88
2022/08/23 17:07:03;;;;;;;33.22;23.27;;;;;;;;;;6153638;28;20042;-87
2022/08/23 17:10:05;;;;;;;31.30;23.70;;;;;;;;;;6170716;28;20027;-88
2022/08/23 17:13:05;;;;;;;;;;;;;;;;;;6141212;28;20453;-87
2022/08/23 17:16:05;;;;;;;32.92;21.85;;;;;;;;;;6151818;28;19906;-88
2022/08/23 17:19:06;;;;;;;33.37;24.47;;;;;;;;;;6148068;28;20072;-88
2022/08/23 17:22:06;;;;;;;31.90;21.20;;;;;;;;;;6170688;28;20019;-87
2022/08/23 17:25:08;;;;;;;29.50;22.13;;;;;;;;;;6167346;28;20045;-88
2022/08/23 17:28:08;;;;;;;31.88;21.20;;;;;;;;;;6157969;28;20521;-88
2022/08/23 17:31:09;;;;;;;34.13;22.13;;;;;;;;;;6138921;28;20038;-88
2022/08/23 17:34:09;;;;;;;28.17;20.27;;;;;;;;;;6159578;28;20034;-87
2022/08/23 17:37:17;;;;;;;33.77;23.73;;;;;;;;;;6171062;28;20398;-87
2022/08/23 17:40:19;;;;;;;33.45;22.48;;;;;;;;;;6170990;28;20529;-88
2022/08/23 17:43:19;;;;;;;33.63;22.52;;;;;;;;;;6166787;28;20034;-87
2022/08/23 17:46:19;;;;;;;37.57;23.83;;;;;;;;;;6141789;28;20395;-88
2022/08/23 17:49:19;;;;;;;28.40;22.27;;;;;;;;;;6157104;28;20034;-87
2022/08/23 17:52:20;;;;;;;35.00;22.87;;;;;;;;;;6149509;28;20023;-88
2022/08/23 17:55:20;;;;;;;35.27;22.10;;;;;;;;;;6153563;28;20027;-87
2022/08/23 17:58:20;;;;;;;31.97;22.27;;;;;;;;;;6152715;28;20118;-88
2022/08/23 18:01:21;;;;;;;32.57;22.80;;;;;;;;;;6151817;28;20546;-88